Time;durP1;ratioP1;P1;durP2;ratioP2;P2;SDS_P1;SDS_P2;PMS_P1;PMS_P2;Temp;Humidity;BMP_temperature;BMP_pressure;BME280_temperature;BME280_humidity;BME280_pressure;Samples;Min_cycle;Max_cycle;Signal;HPM_P1;HPM_P2
2024/03/30 00:01:15;;;;;;;3.33;1.08;;;;;;;11.95;100.00;99078.38;5201755;28;20025;-75
2024/03/30 00:03:47;;;;;;;1.45;0.85;;;;;;;11.94;100.00;99079.31;5206082;28;20078;-75
2024/03/30 00:06:17;;;;;;;0.93;0.60;;;;;;;11.90;100.00;99070.81;5201366;28;20021;-75
2024/03/30 00:08:47;;;;;;;1.48;0.65;;;;;;;12.00;100.00;99064.06;5201267;28;20033;-73
2024/03/30 00:11:18;;;;;;;0.68;0.50;;;;;;;12.04;100.00;99065.53;5202184;28;20135;-75
2024/03/30 00:13:48;;;;;;;1.10;0.40;;;;;;;12.01;100.00;99063.13;5206732;28;20040;-73
2024/03/30 00:16:19;;;;;;;0.70;0.43;;;;;;;11.93;100.00;99059.31;5200093;28;20745;-75
2024/03/30 00:18:51;;;;;;;0.60;0.40;;;;;;;11.87;100.00;99044.84;5205917;28;20100;-74
2024/03/30 00:21:21;;;;;;;0.68;0.50;;;;;;;11.88;100.00;99049.13;5205829;28;20078;-75
2024/03/30 00:23:51;;;;;;;0.98;0.60;;;;;;;11.92;100.00;99045.38;5200179;28;20033;-75
2024/03/30 00:26:22;;;;;;;1.23;0.47;;;;;;;11.95;100.00;99047.78;5198484;28;20040;-75
2024/03/30 00:28:52;;;;;;;0.82;0.60;;;;;;;11.95;100.00;99046.97;5208529;28;20032;-75
2024/03/30 00:31:25;;;;;;;1.67;0.50;;;;;;;11.94;100.00;99050.53;5196287;28;20103;-75
2024/03/30 00:33:55;;;;;;;1.13;0.50;;;;;;;11.91;100.00;99048.94;5199952;28;20424;-75
2024/03/30 00:36:25;;;;;;;1.00;0.52;;;;;;;11.89;100.00;99049.97;5200705;28;20091;-73
2024/03/30 00:38:56;;;;;;;0.70;0.50;;;;;;;11.63;100.00;99041.19;5210462;28;20392;-75
2024/03/30 00:41:26;;;;;;;1.83;0.80;;;;;;;11.53;100.00;99053.16;5202482;28;20223;-74
2024/03/30 00:43:56;;;;;;;1.20;0.68;;;;;;;11.64;100.00;99062.97;5203865;28;20017;-73
2024/03/30 00:46:27;;;;;;;2.20;0.80;;;;;;;11.57;100.00;99056.44;5207414;28;20424;-74
2024/03/30 00:48:58;;;;;;;4.20;0.80;;;;;;;11.44;100.00;99050.28;5185203;28;20021;-75
2024/03/30 00:51:28;;;;;;;1.27;0.75;;;;;;;11.40;100.00;99033.06;5206930;28;20079;-75
2024/03/30 00:53:59;;;;;;;1.55;0.70;;;;;;;11.49;100.00;99043.81;5200139;28;20033;-72
2024/03/30 00:56:30;;;;;;;1.50;0.80;;;;;;;11.60;100.00;99046.63;5203672;28;20508;-74
2024/03/30 00:59:00;;;;;;;1.08;0.60;;;;;;;11.73;100.00;99055.34;5206658;28;20021;-74
2024/03/30 01:01:30;;;;;;;1.92;0.73;;;;;;;11.79;100.00;99056.75;5207887;28;20025;-75
2024/03/30 01:04:02;;;;;;;2.03;0.80;;;;;;;11.81;100.00;99058.31;5209255;28;20112;-74
2024/03/30 01:06:33;;;;;;;1.13;0.60;;;;;;;11.81;100.00;99055.69;5199928;28;20395;-75
2024/03/30 01:09:03;;;;;;;1.33;0.80;;;;;;;11.62;100.00;99057.81;5204315;28;20032;-75
2024/03/30 01:11:34;;;;;;;2.00;0.95;;;;;;;11.69;100.00;99061.75;5201266;28;20395;-75
2024/03/30 01:14:05;;;;;;;1.70;0.82;;;;;;;11.66;100.00;99056.72;5197376;28;20110;-75
2024/03/30 01:16:35;;;;;;;2.55;0.90;;;;;;;11.71;100.00;99070.31;5196456;28;20122;-74
2024/03/30 01:19:06;;;;;;;1.63;0.75;;;;;;;11.73;100.00;99063.22;5198193;28;20067;-72
2024/03/30 01:21:36;;;;;;;1.23;0.60;;;;;;;11.82;100.00;99065.22;5206930;28;20032;-75
2024/03/30 01:24:07;;;;;;;0.98;0.68;;;;;;;11.86;100.00;99079.81;5193387;28;20040;-74
2024/03/30 01:26:47;;;;;;;1.40;0.82;;;;;;;11.71;100.00;99072.09;5204399;28;20056;-75
2024/03/30 01:29:23;;;;;;;2.00;0.70;;;;;;;11.79;100.00;99075.88;5198285;28;20018;-72
2024/03/30 01:31:53;;;;;;;1.40;0.82;;;;;;;11.82;100.00;99091.41;5197725;28;20033;-74
2024/03/30 01:34:24;;;;;;;1.73;0.85;;;;;;;11.77;100.00;99096.09;5195386;28;20032;-75
2024/03/30 01:36:54;;;;;;;1.20;0.70;;;;;;;11.87;100.00;99107.66;5198030;28;20040;-75
2024/03/30 01:39:24;;;;;;;1.67;0.95;;;;;;;11.90;100.00;99091.75;5182381;28;20424;-75
2024/03/30 01:41:55;;;;;;;0.98;0.65;;;;;;;11.91;100.00;99088.19;5198341;28;20365;-72
2024/03/30 01:44:25;;;;;;;1.23;0.70;;;;;;;11.80;100.00;99090.66;5195816;28;20041;-73
2024/03/30 01:46:55;;;;;;;1.40;0.73;;;;;;;11.92;100.00;99100.34;5199745;28;20530;-75
2024/03/30 01:49:26;;;;;;;1.67;0.82;;;;;;;11.91;100.00;99119.63;5201449;28;20038;-75
2024/03/30 01:51:58;;;;;;;1.33;0.70;;;;;;;11.96;100.00;99137.66;5203392;28;20026;-73
2024/03/30 01:54:30;;;;;;;1.27;0.73;;;;;;;12.02;100.00;99163.44;5187127;28;20025;-75
2024/03/30 01:57:00;;;;;;;1.17;0.70;;;;;;;11.96;100.00;99148.94;5202707;28;20025;-75
2024/03/30 01:59:31;;;;;;;1.00;0.80;;;;;;;11.81;100.00;99115.06;5197874;28;20048;-75
2024/03/30 02:02:01;;;;;;;1.02;0.70;;;;;;;11.71;100.00;99091.25;5200214;28;20498;-75
2024/03/30 02:04:32;;;;;;;2.35;0.93;;;;;;;11.81;100.00;99086.28;5216746;28;20033;-75
2024/03/30 02:07:03;;;;;;;1.40;0.80;;;;;;;11.78;100.00;99095.16;5203367;28;20121;-75
2024/03/30 02:09:35;;;;;;;1.60;0.90;;;;;;;11.73;100.00;99081.53;5200450;28;20025;-75
2024/03/30 02:12:06;;;;;;;1.65;0.90;;;;;;;11.81;100.00;99081.03;5201024;28;20021;-73
2024/03/30 02:14:36;;;;;;;1.80;0.80;;;;;;;11.75;100.00;99071.81;5204361;28;20052;-75
2024/03/30 02:17:07;;;;;;;1.33;0.60;;;;;;;11.63;100.00;99067.34;5203352;28;20385;-73
2024/03/30 02:19:46;;;;;;;1.58;0.85;;;;;;;11.59;100.00;99060.63;5208419;28;21087;-75
2024/03/30 02:22:18;;;;;;;1.13;0.63;;;;;;;11.58;100.00;99060.75;5207364;28;20455;-75
2024/03/30 02:24:48;;;;;;;1.20;0.65;;;;;;;11.66;100.00;99055.84;5202525;28;20029;-75
2024/03/30 02:27:19;;;;;;;1.05;0.70;;;;;;;11.57;100.00;99054.66;5205726;28;20613;-72
2024/03/30 02:29:55;;;;;;;1.13;0.80;;;;;;;11.53;100.00;99050.53;5209714;28;20160;-74
2024/03/30 02:32:27;;;;;;;1.42;0.80;;;;;;;11.48;100.00;99042.13;5205677;28;20029;-75
2024/03/30 02:34:57;;;;;;;0.98;0.70;;;;;;;11.45;100.00;99044.94;5205233;28;20036;-75
2024/03/30 02:37:28;;;;;;;1.48;0.90;;;;;;;11.54;100.00;99049.59;5205291;28;20025;-75
2024/03/30 02:39:58;;;;;;;0.60;0.57;;;;;;;11.35;100.00;99046.47;5205139;28;20041;-75
2024/03/30 02:42:29;;;;;;;1.17;0.68;;;;;;;11.54;100.00;99053.97;5199991;28;20025;-75
2024/03/30 02:44:59;;;;;;;1.10;0.60;;;;;;;11.41;100.00;99045.25;5204091;28;20536;-74
2024/03/30 02:47:29;;;;;;;1.17;0.70;;;;;;;11.30;100.00;99043.28;5203039;28;20028;-75
2024/03/30 02:50:01;;;;;;;1.30;0.80;;;;;;;11.33;100.00;99047.50;5203618;28;20392;-75
2024/03/30 02:52:31;;;;;;;1.05;0.70;;;;;;;11.21;100.00;99054.34;5203543;28;20469;-75
2024/03/30 02:55:02;;;;;;;1.35;0.75;;;;;;;11.25;100.00;99045.34;5210616;28;20112;-75
2024/03/30 02:57:32;;;;;;;1.23;0.85;;;;;;;11.26;100.00;99041.81;5206838;28;20063;-75
2024/03/30 03:00:08;;;;;;;2.17;0.90;;;;;;;11.17;100.00;99031.94;5209515;28;20160;-75
2024/03/30 03:02:38;;;;;;;2.38;1.00;;;;;;;11.08;100.00;99047.34;5210022;28;20032;-75
2024/03/30 03:05:08;;;;;;;1.00;0.80;;;;;;;11.07;100.00;99041.28;5202228;28;20040;-74
2024/03/30 03:07:39;;;;;;;1.38;0.88;;;;;;;11.07;100.00;99027.38;5202904;28;21372;-75
2024/03/30 03:10:09;;;;;;;2.35;0.98;;;;;;;10.92;100.00;99019.63;5196065;28;20417;-74
2024/03/30 03:12:39;;;;;;;1.40;0.90;;;;;;;10.92;100.00;99019.63;5208719;28;20139;-75
2024/03/30 03:15:10;;;;;;;3.10;1.00;;;;;;;10.93;100.00;99016.94;5205471;28;20027;-74
2024/03/30 03:17:40;;;;;;;1.75;0.85;;;;;;;10.92;100.00;99006.56;5208030;28;20032;-74
2024/03/30 03:20:10;;;;;;;1.50;0.77;;;;;;;11.07;100.00;99009.06;5199578;28;20040;-75
2024/03/30 03:22:41;;;;;;;1.90;1.05;;;;;;;11.07;100.00;99019.53;5203109;28;20029;-75
2024/03/30 03:25:11;;;;;;;2.75;1.30;;;;;;;10.98;100.00;99019.25;5196541;28;20068;-75
2024/03/30 03:27:41;;;;;;;3.90;1.98;;;;;;;10.97;100.00;99018.41;5203302;28;20631;-75
2024/03/30 03:30:11;;;;;;;1.65;1.00;;;;;;;10.96;100.00;99015.88;5204572;28;20057;-75
2024/03/30 03:32:42;;;;;;;3.00;1.20;;;;;;;10.85;100.00;99026.19;5202138;28;20021;-75
2024/03/30 03:35:12;;;;;;;2.50;1.25;;;;;;;10.82;100.00;99031.59;5198616;28;20036;-75
2024/03/30 03:37:43;;;;;;;7.47;3.25;;;;;;;10.93;100.00;99021.31;5208187;28;20037;-72
2024/03/30 03:40:13;;;;;;;2.28;1.50;;;;;;;10.95;100.00;99014.22;5195344;28;20456;-75
2024/03/30 03:42:43;;;;;;;1.95;0.98;;;;;;;10.86;100.00;99014.78;5198028;28;20551;-75
2024/03/30 03:45:14;;;;;;;1.67;1.00;;;;;;;10.83;100.00;99014.97;5207201;28;20027;-75
2024/03/30 03:47:44;;;;;;;1.30;0.88;;;;;;;10.90;100.00;99016.28;5204220;28;20132;-72
2024/03/30 03:50:15;;;;;;;1.60;1.00;;;;;;;10.85;100.00;99015.72;5207652;28;20043;-74
2024/03/30 03:52:45;;;;;;;1.30;0.80;;;;;;;10.76;100.00;99003.22;5203253;28;20018;-73
2024/03/30 03:55:15;;;;;;;0.95;0.70;;;;;;;10.29;100.00;99000.00;5194280;28;20018;-75
2024/03/30 03:57:46;;;;;;;2.40;1.23;;;;;;;10.25;100.00;98996.75;5205390;28;20018;-74
2024/03/30 04:00:16;;;;;;;1.38;0.80;;;;;;;10.22;100.00;99003.91;5198552;28;20036;-75
2024/03/30 04:02:47;;;;;;;1.60;0.90;;;;;;;10.31;100.00;99000.78;5203067;28;20036;-75
2024/03/30 04:05:17;;;;;;;1.40;1.00;;;;;;;10.31;100.00;98998.16;5202023;28;20061;-75
2024/03/30 04:07:48;;;;;;;2.20;0.90;;;;;;;10.31;100.00;98990.34;5202145;28;20021;-75
2024/03/30 04:10:20;;;;;;;1.60;0.98;;;;;;;10.38;100.00;98996.84;5203680;28;20052;-75
2024/03/30 04:12:53;;;;;;;1.33;0.80;;;;;;;10.29;100.00;98986.94;5196942;28;20123;-75
2024/03/30 04:15:23;;;;;;;1.17;0.85;;;;;;;10.34;100.00;98979.69;5199570;28;20021;-72
2024/03/30 04:17:54;;;;;;;1.65;1.00;;;;;;;10.29;100.00;98979.97;5202292;28;20032;-75
2024/03/30 04:20:24;;;;;;;1.38;1.00;;;;;;;10.35;100.00;98987.44;5202606;28;20292;-75
2024/03/30 04:22:54;;;;;;;2.10;1.13;;;;;;;10.24;100.00;98987.25;5202350;28;20021;-75
2024/03/30 04:25:24;;;;;;;2.10;0.93;;;;;;;10.27;100.00;99001.88;5198793;28;20029;-73
2024/03/30 04:27:55;;;;;;;1.63;1.00;;;;;;;10.21;100.00;99002.25;5203048;28;20360;-75
2024/03/30 04:30:25;;;;;;;1.00;0.73;;;;;;;9.96;100.00;98999.38;5198642;28;20037;-75
2024/03/30 04:32:55;;;;;;;1.65;0.80;;;;;;;9.93;100.00;98989.09;5207765;28;20028;-75
2024/03/30 04:35:26;;;;;;;1.77;0.90;;;;;;;10.09;100.00;98989.91;5194509;28;20052;-74
2024/03/30 04:37:56;;;;;;;1.35;0.98;;;;;;;10.01;100.00;98981.66;5197990;28;20334;-75
2024/03/30 04:40:27;;;;;;;1.88;0.70;;;;;;;10.03;100.00;98982.44;5194585;28;20033;-75
2024/03/30 04:42:57;;;;;;;1.77;0.77;;;;;;;9.78;100.00;98984.75;5201427;28;20068;-75
2024/03/30 04:45:28;;;;;;;1.25;0.70;;;;;;;9.97;100.00;98986.22;5196904;28;20289;-75
2024/03/30 04:47:58;;;;;;;1.40;0.80;;;;;;;9.96;100.00;98991.53;5197588;28;20029;-75
2024/03/30 04:50:29;;;;;;;0.75;0.63;;;;;;;9.85;100.00;98988.72;5202647;28;20083;-75
2024/03/30 04:52:59;;;;;;;1.55;0.90;;;;;;;9.77;100.00;98977.84;5199052;28;20306;-76
2024/03/30 04:55:29;;;;;;;1.13;0.80;;;;;;;9.89;100.00;98970.19;5192464;28;20408;-75
2024/03/30 04:57:59;;;;;;;1.35;0.70;;;;;;;9.90;100.00;98968.41;5232542;22;20040;-71
2024/03/30 05:00:33;;;;;;;0.95;0.70;;;;;;;9.90;100.00;98968.41;5215256;28;20490;-70
2024/03/30 05:03:04;;;;;;;0.80;0.52;;;;;;;9.85;100.00;98954.78;5216322;28;20460;-71
2024/03/30 05:05:34;;;;;;;1.25;0.60;;;;;;;9.89;100.00;98957.13;5216353;28;20040;-71
2024/03/30 05:08:04;;;;;;;1.65;0.60;;;;;;;9.77;100.00;98944.81;5219530;28;20031;-69
2024/03/30 05:10:36;;;;;;;1.05;0.65;;;;;;;9.83;100.00;98935.78;5218513;28;20033;-71
2024/03/30 05:13:06;;;;;;;0.90;0.60;;;;;;;9.84;100.00;98927.03;5216698;28;20098;-71
2024/03/30 05:15:39;;;;;;;1.00;0.60;;;;;;;9.91;100.00;98938.75;5224023;28;20487;-71
2024/03/30 05:18:11;;;;;;;0.88;0.70;;;;;;;9.75;100.00;98932.75;5217806;28;20055;-70
2024/03/30 05:20:53;;;;;;;0.77;0.50;;;;;;;9.83;100.00;98925.34;5220690;28;20029;-71
2024/03/30 05:23:28;;;;;;;0.80;0.60;;;;;;;9.92;100.00;98924.78;5217514;28;20044;-71
2024/03/30 05:26:00;;;;;;;0.70;0.50;;;;;;;10.01;100.00;98926.88;5234401;28;20056;-70
2024/03/30 05:28:32;;;;;;;1.08;0.60;;;;;;;9.91;100.00;98923.97;5220174;28;20052;-71
2024/03/30 05:31:05;;;;;;;1.13;0.73;;;;;;;9.88;100.00;98925.91;5227899;28;20565;-70
2024/03/30 05:33:36;;;;;;;0.80;0.50;;;;;;;9.96;100.00;98921.09;5219012;28;20496;-70
2024/03/30 05:36:06;;;;;;;0.95;0.60;;;;;;;10.02;100.00;98915.53;5225229;28;20050;-70
2024/03/30 05:38:36;;;;;;;0.95;0.60;;;;;;;10.09;100.00;98912.47;5222141;28;20034;-71
2024/03/30 05:41:07;;;;;;;1.58;0.77;;;;;;;10.11;100.00;98914.97;5220694;28;20491;-71
2024/03/30 05:43:37;;;;;;;0.90;0.55;;;;;;;10.21;100.00;98905.66;5222119;28;20391;-70
2024/03/30 05:46:07;;;;;;;0.52;0.43;;;;;;;10.25;100.00;98918.44;5223969;28;20032;-70
2024/03/30 05:48:38;;;;;;;0.70;0.47;;;;;;;10.26;100.00;98917.50;5223725;28;20417;-70
2024/03/30 05:51:08;;;;;;;0.90;0.47;;;;;;;10.41;100.00;98903.53;5226625;28;20091;-69
2024/03/30 05:53:38;;;;;;;1.25;0.73;;;;;;;10.44;100.00;98903.31;5223636;28;20033;-70
2024/03/30 05:56:09;;;;;;;0.88;0.50;;;;;;;10.32;100.00;98903.25;5222793;28;20025;-68
2024/03/30 05:58:39;;;;;;;0.70;0.40;;;;;;;10.24;100.00;98918.53;5222588;28;20020;-70
2024/03/30 06:01:09;;;;;;;1.27;0.68;;;;;;;10.31;100.00;98923.28;5222900;28;20071;-69
2024/03/30 06:03:40;;;;;;;0.90;0.60;;;;;;;10.48;100.00;98907.41;5224508;28;20411;-70
2024/03/30 06:06:10;;;;;;;0.70;0.60;;;;;;;10.27;100.00;98900.91;5226578;28;20140;-71
2024/03/30 06:08:40;;;;;;;1.23;0.80;;;;;;;10.18;100.00;98911.06;5221312;28;20482;-70
2024/03/30 06:11:10;;;;;;;1.70;1.10;;;;;;;10.27;100.00;98910.50;5222413;28;20032;-70
2024/03/30 06:13:41;;;;;;;2.10;1.25;;;;;;;10.53;100.00;98922.81;5225008;28;20093;-70
2024/03/30 06:16:12;;;;;;;2.55;1.60;;;;;;;10.77;100.00;98911.69;5222961;28;20028;-69
2024/03/30 06:18:42;;;;;;;2.75;1.73;;;;;;;10.84;100.00;98896.47;5222490;28;20158;-69
2024/03/30 06:21:12;;;;;;;2.97;1.60;;;;;;;11.02;100.00;98899.56;5223703;28;20032;-70
2024/03/30 06:23:42;;;;;;;3.25;1.80;;;;;;;11.12;100.00;98908.47;5224834;28;20525;-69
2024/03/30 06:26:13;;;;;;;2.85;1.85;;;;;;;11.21;100.00;98905.28;5229049;28;20028;-70
2024/03/30 06:28:43;;;;;;;3.05;1.85;;;;;;;11.29;100.00;98910.03;5223224;28;20020;-69
2024/03/30 06:31:13;;;;;;;2.75;1.75;;;;;;;11.30;100.00;98917.75;5229163;28;20112;-70
2024/03/30 06:33:45;;;;;;;3.08;1.75;;;;;;;11.28;100.00;98908.34;5227216;28;20024;-70
2024/03/30 06:36:15;;;;;;;2.70;1.73;;;;;;;11.38;100.00;98909.41;5222119;28;20108;-70
2024/03/30 06:38:46;;;;;;;2.97;1.55;;;;;;;11.52;100.00;98919.81;5223804;28;20131;-70
2024/03/30 06:44:05;;;;;;;4.80;1.75;;;;;;;11.99;100.00;98918.34;5224554;28;20087;-70
2024/03/30 06:46:35;;;;;;;2.60;1.73;;;;;;;11.98;100.00;98905.38;5225322;28;20025;-70
2024/03/30 06:49:05;;;;;;;2.70;1.75;;;;;;;12.16;100.00;98899.72;5222709;28;20028;-70
2024/03/30 06:51:36;;;;;;;3.72;2.05;;;;;;;12.26;100.00;98897.34;5225811;28;20024;-70
2024/03/30 06:54:06;;;;;;;4.07;2.10;;;;;;;12.59;100.00;98911.53;5219422;28;20480;-70
2024/03/30 06:56:36;;;;;;;3.75;2.08;;;;;;;12.76;100.00;98910.31;5224378;28;20024;-70
2024/03/30 06:59:06;;;;;;;4.20;2.10;;;;;;;12.65;100.00;98897.16;5220522;28;20029;-70
2024/03/30 07:01:37;;;;;;;3.08;1.77;;;;;;;12.86;100.00;98887.75;5224685;28;20028;-70
2024/03/30 07:04:07;;;;;;;3.38;2.00;;;;;;;12.97;100.00;98888.69;5223859;28;20041;-71
2024/03/30 07:06:37;;;;;;;2.85;1.65;;;;;;;13.50;100.00;98888.25;5225774;28;20194;-70
2024/03/30 07:09:07;;;;;;;3.08;1.80;;;;;;;13.73;97.30;98897.88;5221715;28;20037;-70
2024/03/30 07:11:38;;;;;;;2.92;1.55;;;;;;;14.08;95.24;98909.19;5222442;28;20487;-71
2024/03/30 07:14:08;;;;;;;2.63;1.58;;;;;;;14.88;93.61;98910.66;5219637;28;20231;-70
2024/03/30 07:16:38;;;;;;;2.70;1.63;;;;;;;14.85;94.38;98905.63;5220686;28;20029;-71
2024/03/30 07:19:09;;;;;;;2.35;1.45;;;;;;;14.58;91.38;98893.00;5223056;28;20025;-70
2024/03/30 07:21:39;;;;;;;2.42;1.58;;;;;;;15.29;90.00;98895.06;5223289;28;20020;-71
2024/03/30 07:24:09;;;;;;;2.35;1.30;;;;;;;15.47;88.46;98895.31;5222864;28;20033;-69
2024/03/30 07:26:40;;;;;;;3.13;1.52;;;;;;;15.05;89.75;98888.28;5220999;28;20054;-71
2024/03/30 07:29:10;;;;;;;2.80;1.48;;;;;;;15.07;91.54;98905.63;5220777;28;20029;-69
2024/03/30 07:31:41;;;;;;;2.28;1.50;;;;;;;14.86;91.38;98902.03;5218814;28;20474;-71
2024/03/30 07:34:11;;;;;;;2.60;1.55;;;;;;;15.00;92.79;98900.97;5226433;28;20024;-70
2024/03/30 07:36:41;;;;;;;2.10;1.40;;;;;;;14.66;92.66;98899.34;5221084;28;20745;-70
2024/03/30 07:39:11;;;;;;;2.90;1.65;;;;;;;15.31;92.01;98905.44;5219730;28;20025;-69
2024/03/30 07:41:42;;;;;;;5.20;1.80;;;;;;;15.69;89.49;98901.34;5225206;28;20028;-71
2024/03/30 07:44:12;;;;;;;1.92;1.40;;;;;;;16.01;88.01;98899.50;5227822;28;20025;-70
2024/03/30 07:46:43;;;;;;;3.15;1.48;;;;;;;16.24;86.47;98901.00;5223017;28;20033;-70
2024/03/30 07:49:13;;;;;;;3.35;1.88;;;;;;;16.22;84.84;98902.94;5221617;28;20036;-70
2024/03/30 07:51:43;;;;;;;2.80;1.73;;;;;;;16.53;84.89;98891.47;5225330;28;20116;-69
2024/03/30 07:54:13;;;;;;;2.38;1.70;;;;;;;16.42;84.30;98898.66;5222935;28;20032;-71
2024/03/30 07:56:54;;;;;;;2.67;1.77;;;;;;;16.54;84.46;98900.25;5221546;28;20070;-70
2024/03/30 07:59:25;;;;;;;2.58;1.80;;;;;;;16.48;84.28;98906.88;5224253;28;20029;-69
2024/03/30 08:01:55;;;;;;;3.40;1.50;;;;;;;16.69;84.45;98902.38;5225930;28;20025;-71
2024/03/30 08:04:26;;;;;;;3.50;2.05;;;;;;;16.54;84.53;98901.06;5224560;28;20094;-70
2024/03/30 08:06:56;;;;;;;2.85;1.88;;;;;;;16.28;84.63;98902.44;5223608;28;20456;-71
2024/03/30 08:09:26;;;;;;;3.85;2.10;;;;;;;16.65;83.22;98903.63;5222024;28;20035;-71
2024/03/30 08:11:57;;;;;;;4.65;2.15;;;;;;;17.69;79.29;98895.06;5225577;28;20043;-71
2024/03/30 08:14:27;;;;;;;3.33;2.05;;;;;;;17.80;77.86;98900.22;5226040;28;20142;-71
2024/03/30 08:16:57;;;;;;;3.53;1.98;;;;;;;17.88;79.39;98905.63;5221866;28;20029;-70
2024/03/30 08:19:28;;;;;;;3.20;2.10;;;;;;;18.46;77.25;98900.13;5220514;28;20467;-71
2024/03/30 08:21:58;;;;;;;3.08;2.13;;;;;;;19.01;76.23;98894.72;5221540;28;20031;-70
2024/03/30 08:24:28;;;;;;;4.13;2.38;;;;;;;19.46;73.07;98894.72;5225420;28;20078;-71
2024/03/30 08:26:58;;;;;;;3.17;2.00;;;;;;;19.66;72.99;98888.28;5223251;28;20108;-71
2024/03/30 08:29:29;;;;;;;3.10;2.08;;;;;;;20.18;71.99;98893.56;5225705;28;20655;-71
2024/03/30 08:31:59;;;;;;;3.58;2.00;;;;;;;20.05;71.46;98895.78;5225137;28;20044;-71
2024/03/30 08:34:29;;;;;;;2.90;1.98;;;;;;;20.86;70.49;98885.50;5221241;28;20064;-71
2024/03/30 08:37:00;;;;;;;3.55;2.15;;;;;;;20.88;71.75;98880.03;5223064;28;20119;-71
2024/03/30 08:39:30;;;;;;;4.40;2.10;;;;;;;20.54;69.66;98871.22;5221506;28;20035;-70
2024/03/30 08:42:00;;;;;;;3.65;2.00;;;;;;;21.10;70.27;98880.25;5220628;28;20278;-71
2024/03/30 08:44:31;;;;;;;4.13;2.00;;;;;;;20.84;69.81;98878.66;5226389;28;20040;-69
2024/03/30 08:47:02;;;;;;;3.72;1.95;;;;;;;21.07;69.36;98877.13;5222558;28;20067;-71
2024/03/30 08:49:32;;;;;;;3.60;2.40;;;;;;;21.65;67.55;98868.13;5219859;28;20036;-70
2024/03/30 08:52:03;;;;;;;5.32;2.28;;;;;;;22.41;69.19;98871.25;5221581;28;20027;-70
2024/03/30 08:54:33;;;;;;;3.65;2.10;;;;;;;21.94;68.14;98875.59;5226060;28;20093;-71
2024/03/30 08:57:03;;;;;;;3.00;1.90;;;;;;;22.29;67.76;98868.06;5222804;28;20102;-71
2024/03/30 08:59:34;;;;;;;3.58;1.77;;;;;;;21.98;68.05;98866.28;5225067;28;20082;-71
2024/03/30 09:02:04;;;;;;;3.13;1.80;;;;;;;22.13;67.22;98865.44;5219172;28;20075;-71
2024/03/30 09:04:34;;;;;;;3.33;1.60;;;;;;;21.51;68.31;98867.88;5222556;28;20288;-71
2024/03/30 09:07:05;;;;;;;2.80;1.48;;;;;;;22.01;67.95;98857.94;5224035;28;20283;-71
2024/03/30 09:09:35;;;;;;;3.75;1.63;;;;;;;21.63;68.84;98863.94;5226563;28;20111;-71
2024/03/30 09:12:06;;;;;;;5.53;1.60;;;;;;;22.86;66.13;98862.41;5226158;28;20550;-70
2024/03/30 09:14:36;;;;;;;2.03;1.05;;;;;;;21.76;66.10;98861.63;5222701;28;20369;-71
2024/03/30 09:17:06;;;;;;;2.72;1.40;;;;;;;22.53;64.04;98864.53;5220659;28;20039;-69
2024/03/30 09:19:38;;;;;;;2.67;1.43;;;;;;;22.82;66.08;98858.44;5223659;28;20051;-71
2024/03/30 09:22:08;;;;;;;5.40;1.92;;;;;;;23.24;65.49;98863.44;5225240;28;20283;-71
2024/03/30 09:24:39;;;;;;;3.87;1.50;;;;;;;22.92;64.32;98860.91;5222491;28;20036;-71
2024/03/30 09:27:09;;;;;;;4.10;1.80;;;;;;;22.86;65.43;98856.28;5224217;28;20336;-71
2024/03/30 09:29:40;;;;;;;2.42;1.30;;;;;;;21.84;67.21;98862.47;5221061;28;20433;-70
2024/03/30 09:32:11;;;;;;;2.70;1.30;;;;;;;21.37;67.55;98857.94;5222742;28;20090;-71
2024/03/30 09:34:41;;;;;;;2.80;1.20;;;;;;;21.79;66.76;98861.31;5222244;28;20275;-70
2024/03/30 09:37:12;;;;;;;2.30;1.07;;;;;;;21.53;65.59;98857.91;5224431;28;20025;-69
2024/03/30 09:39:43;;;;;;;1.60;1.00;;;;;;;21.27;66.60;98863.34;5220163;28;20333;-69
2024/03/30 09:42:31;;;;;;;2.65;1.00;;;;;;;20.25;68.91;98867.22;5218318;28;20029;-70
2024/03/30 09:45:03;;;;;;;2.22;1.00;;;;;;;20.05;68.99;98874.56;5220444;28;20029;-71
2024/03/30 09:47:36;;;;;;;3.08;0.70;;;;;;;20.31;68.98;98883.34;5215482;28;20522;-69
2024/03/30 09:50:11;;;;;;;2.95;1.05;;;;;;;20.43;69.03;98894.56;5217587;28;20028;-70
2024/03/30 09:52:42;;;;;;;1.50;0.70;;;;;;;20.35;69.99;98895.34;5216671;28;20028;-70
2024/03/30 09:55:14;;;;;;;4.82;1.88;;;;;;;20.34;71.98;98900.78;5218803;28;20096;-70
2024/03/30 09:57:48;;;;;;;3.10;1.63;;;;;;;20.08;75.98;98889.31;5220668;28;20032;-71
2024/03/30 10:00:19;;;;;;;4.85;1.65;;;;;;;19.79;73.96;98905.47;5222758;28;20123;-70
2024/03/30 10:02:49;;;;;;;5.00;1.80;;;;;;;19.57;74.51;98910.38;5220706;28;20807;-70
2024/03/30 10:05:20;;;;;;;3.53;1.35;;;;;;;19.72;77.37;98912.38;5221459;28;20542;-71
2024/03/30 10:07:50;;;;;;;3.78;1.65;;;;;;;19.66;76.73;98917.44;5212832;28;20129;-71
2024/03/30 10:10:21;;;;;;;3.40;1.47;;;;;;;19.60;76.34;98916.22;5219693;28;20025;-70
2024/03/30 10:12:54;;;;;;;4.75;1.80;;;;;;;19.59;77.10;98911.91;5215642;28;20855;-70
2024/03/30 10:15:38;;;;;;;6.88;2.28;;;;;;;19.43;75.96;98910.94;5217615;28;20123;-70
2024/03/30 10:18:09;;;;;;;4.97;1.92;;;;;;;19.32;77.63;98906.69;5216148;28;20630;-70
2024/03/30 10:20:39;;;;;;;9.25;2.40;;;;;;;18.95;78.58;98911.16;5218019;28;20089;-71
2024/03/30 10:23:10;;;;;;;4.97;1.77;;;;;;;19.15;78.73;98906.63;5215722;28;20075;-69
2024/03/30 10:25:54;;;;;;;3.85;2.05;;;;;;;19.14;79.24;98910.25;5215824;28;20032;-70
2024/03/30 10:28:25;;;;;;;4.45;2.25;;;;;;;18.96;80.44;98907.53;5215517;28;20064;-71
2024/03/30 10:30:56;;;;;;;5.53;2.30;;;;;;;19.25;80.05;98910.09;5218300;28;20116;-71
2024/03/30 10:33:26;;;;;;;7.63;2.05;;;;;;;18.92;79.96;98906.19;5218240;28;20062;-70
2024/03/30 10:35:57;;;;;;;3.70;2.20;;;;;;;18.94;79.60;98909.50;5219729;28;20025;-71
2024/03/30 10:38:28;;;;;;;4.85;2.10;;;;;;;19.10;79.06;98901.75;5219142;28;20025;-71
2024/03/30 10:40:58;;;;;;;4.47;1.80;;;;;;;19.31;81.14;98896.22;5217872;28;20602;-68
2024/03/30 10:43:28;;;;;;;7.53;1.92;;;;;;;19.53;80.21;98893.13;5221586;28;20036;-71
2024/03/30 10:45:59;;;;;;;5.85;1.73;;;;;;;19.26;79.65;98894.03;5219959;28;20039;-71
2024/03/30 10:48:29;;;;;;;4.28;1.52;;;;;;;19.40;78.06;98884.72;5226385;28;20041;-70
2024/03/30 10:51:00;;;;;;;7.60;2.70;;;;;;;19.29;76.85;98893.72;5219726;28;20379;-70
2024/03/30 10:53:30;;;;;;;6.75;2.55;;;;;;;18.93;78.63;98889.31;5222397;28;20024;-71
2024/03/30 10:56:00;;;;;;;4.35;1.65;;;;;;;18.95;79.63;98876.75;5220074;28;20036;-69
2024/03/30 10:58:32;;;;;;;6.88;2.17;;;;;;;19.09;76.94;98878.91;5219523;23;20061;-74
2024/03/30 11:01:04;;;;;;;4.47;1.77;;;;;;;19.18;77.50;98874.56;5200466;28;20033;-74
2024/03/30 11:03:35;;;;;;;7.07;2.00;;;;;;;19.21;78.19;98876.91;5206952;28;20029;-72
2024/03/30 11:06:06;;;;;;;6.47;1.40;;;;;;;19.34;80.01;98883.53;5209795;28;20055;-75
2024/03/30 11:08:37;;;;;;;5.38;1.90;;;;;;;19.29;80.80;98880.47;5211896;28;20440;-72
2024/03/30 11:11:08;;;;;;;5.43;1.80;;;;;;;19.27;79.87;98877.16;5212394;28;20052;-74
2024/03/30 11:13:38;;;;;;;5.43;1.98;;;;;;;19.41;79.64;98881.09;5215002;28;20029;-75
2024/03/30 11:16:12;;;;;;;6.63;2.42;;;;;;;19.45;80.82;98879.81;5201220;28;20496;-72
2024/03/30 11:19:00;;;;;;;8.35;2.13;;;;;;;19.49;80.60;98884.69;5212511;28;20047;-72
2024/03/30 11:21:36;;;;;;;3.85;1.52;;;;;;;19.46;81.39;98879.66;5206375;28;20108;-75
2024/03/30 11:24:08;;;;;;;5.95;1.90;;;;;;;19.68;82.34;98883.66;5209297;28;20514;-74
2024/03/30 11:26:48;;;;;;;10.35;3.00;;;;;;;19.62;80.98;98889.59;5202864;28;20045;-74
2024/03/30 11:29:29;;;;;;;168.32;44.15;;;;;;;19.72;78.21;98885.88;5203833;28;20030;-74
2024/03/30 11:32:12;;;;;;;6.82;2.65;;;;;;;19.77;79.43;98883.59;5202209;28;20396;-75
2024/03/30 11:34:56;;;;;;;6.03;2.13;;;;;;;19.68;80.29;98887.16;5194701;28;20108;-72
2024/03/30 11:37:28;;;;;;;6.10;1.88;;;;;;;19.71;79.97;98884.19;5202411;28;20435;-74
2024/03/30 11:40:10;;;;;;;6.25;1.63;;;;;;;19.72;82.70;98885.88;5207611;28;20484;-74
2024/03/30 11:43:06;;;;;;;7.28;1.83;;;;;;;19.76;80.03;98891.72;5201938;28;20029;-75
2024/03/30 11:45:39;;;;;;;7.68;1.77;;;;;;;19.79;79.00;98881.59;5211796;28;20156;-72
2024/03/30 11:48:11;;;;;;;6.15;2.13;;;;;;;20.03;80.29;98889.81;5206119;28;20059;-74
2024/03/30 11:50:42;;;;;;;4.88;1.88;;;;;;;19.97;79.40;98882.41;5211349;28;20068;-74